Time;durP1;ratioP1;P1;durP2;ratioP2;P2;SDS_P1;SDS_P2;PMS_P1;PMS_P2;Temp;Humidity;BMP_temperature;BMP_pressure;BME280_temperature;BME280_humidity;BME280_pressure;Samples;Min_cycle;Max_cycle;Signal;HPM_P1;HPM_P2
2023/12/21 00:00:11;;;;;;;35.42;24.83;;;;;;;;;;5047408;28;20084;-61
2023/12/21 00:02:36;;;;;;;31.27;24.42;;;;;;;;;;5027733;28;20132;-62
2023/12/21 00:05:02;;;;;;;31.98;24.05;;;;;;;;;;5047389;28;20521;-61
2023/12/21 00:07:27;;;;;;;33.72;24.58;;;;;;;;;;5047180;28;20390;-62
2023/12/21 00:09:53;;;;;;;32.92;23.67;;;;;;;;;;5031774;28;20487;-62
2023/12/21 00:12:18;;;;;;;32.60;23.83;;;;;;;;;;5049179;28;20120;-60
2023/12/21 00:14:44;;;;;;;32.05;24.30;;;;;;;;;;5040666;28;20041;-60
2023/12/21 00:17:09;;;;;;;32.33;24.65;;;;;;;;;;5040899;28;20104;-61
2023/12/21 00:19:34;;;;;;;31.70;23.50;;;;;;;;;;5029128;28;20050;-61
2023/12/21 00:21:59;;;;;;;32.17;24.08;;;;;;;;;;5034483;28;20149;-61
2023/12/21 00:24:25;;;;;;;32.83;24.40;;;;;;;;;;5039646;28;20457;-61
2023/12/21 00:26:50;;;;;;;31.98;24.35;;;;;;;;;;5037324;28;20519;-61
2023/12/21 00:29:15;;;;;;;29.52;23.08;;;;;;;;;;5051493;28;21574;-61
2023/12/21 00:31:41;;;;;;;32.30;24.10;;;;;;;;;;5056007;28;20089;-61
2023/12/21 00:34:06;;;;;;;28.98;22.83;;;;;;;;;;5048360;28;20067;-61
2023/12/21 00:36:31;;;;;;;32.38;24.55;;;;;;;;;;5043489;28;20620;-61
2023/12/21 00:38:57;;;;;;;33.38;24.52;;;;;;;;;;5035201;28;20049;-62
2023/12/21 00:41:22;;;;;;;33.05;23.77;;;;;;;;;;5044955;28;20037;-60
2023/12/21 00:43:47;;;;;;;32.25;24.20;;;;;;;;;;5051588;28;20515;-60
2023/12/21 00:46:13;;;;;;;31.70;22.70;;;;;;;;;;5040362;28;20025;-60
2023/12/21 00:48:38;;;;;;;29.35;23.02;;;;;;;;;;5024562;28;20579;-60
2023/12/21 00:51:03;;;;;;;32.28;23.75;;;;;;;;;;5033120;28;20529;-60
2023/12/21 00:53:29;;;;;;;32.03;23.48;;;;;;;;;;5053727;28;20044;-60
2023/12/21 00:55:54;;;;;;;33.80;24.63;;;;;;;;;;5041116;28;20490;-61
2023/12/21 00:58:19;;;;;;;30.83;23.10;;;;;;;;;;5044529;28;20053;-61
2023/12/21 01:00:45;;;;;;;31.45;23.70;;;;;;;;;;5043492;28;20068;-60
2023/12/21 01:03:10;;;;;;;28.48;23.02;;;;;;;;;;5050410;28;20044;-60
2023/12/21 01:05:35;;;;;;;31.50;23.63;;;;;;;;;;5056775;28;20045;-61
2023/12/21 01:08:01;;;;;;;32.10;23.60;;;;;;;;;;5042672;28;20090;-60
2023/12/21 01:10:26;;;;;;;31.88;24.08;;;;;;;;;;5039262;28;20041;-60
2023/12/21 01:12:51;;;;;;;30.25;23.33;;;;;;;;;;5059021;28;20043;-61
2023/12/21 01:15:17;;;;;;;32.67;24.38;;;;;;;;;;5046559;28;20120;-62
2023/12/21 01:17:42;;;;;;;32.13;23.65;;;;;;;;;;5041988;28;20029;-60
2023/12/21 01:20:08;;;;;;;29.50;22.42;;;;;;;;;;5048524;28;20095;-59
2023/12/21 01:22:33;;;;;;;30.75;23.08;;;;;;;;;;5044787;28;20048;-60
2023/12/21 01:24:59;;;;;;;30.00;23.17;;;;;;;;;;5037997;28;20059;-60
2023/12/21 01:27:24;;;;;;;28.60;22.73;;;;;;;;;;5039472;28;20049;-60
2023/12/21 01:29:49;;;;;;;30.08;22.88;;;;;;;;;;5049586;28;20498;-60
2023/12/21 01:32:14;;;;;;;30.17;22.60;;;;;;;;;;5050477;28;20555;-60
2023/12/21 01:34:40;;;;;;;28.42;21.67;;;;;;;;;;5024684;28;20117;-60
2023/12/21 01:37:05;;;;;;;29.80;22.58;;;;;;;;;;5033051;28;20098;-60
2023/12/21 01:39:30;;;;;;;30.67;22.60;;;;;;;;;;5037749;28;20459;-60
2023/12/21 01:41:56;;;;;;;28.63;22.67;;;;;;;;;;5038937;28;20515;-60
2023/12/21 01:44:21;;;;;;;29.38;22.85;;;;;;;;;;5040652;28;20603;-60
2023/12/21 01:46:46;;;;;;;29.58;22.40;;;;;;;;;;5043338;28;20043;-59
2023/12/21 01:49:12;;;;;;;28.45;21.75;;;;;;;;;;5040003;28;20125;-60
2023/12/21 01:51:37;;;;;;;29.27;22.70;;;;;;;;;;5047334;28;20533;-60
2023/12/21 01:54:03;;;;;;;28.13;21.27;;;;;;;;;;5037151;28;20487;-60
2023/12/21 01:56:29;;;;;;;26.48;21.05;;;;;;;;;;5043320;28;20090;-60
2023/12/21 01:58:54;;;;;;;28.50;21.73;;;;;;;;;;5029473;28;20040;-61
2023/12/21 02:01:20;;;;;;;28.15;22.48;;;;;;;;;;5043587;28;20407;-60
2023/12/21 02:03:45;;;;;;;28.10;21.63;;;;;;;;;;5055015;28;20140;-61
2023/12/21 02:06:11;;;;;;;27.48;21.58;;;;;;;;;;5038325;28;20045;-61
2023/12/21 02:08:36;;;;;;;27.00;21.35;;;;;;;;;;5035169;28;20095;-62
2023/12/21 02:11:06;;;;;;;28.10;21.20;;;;;;;;;;5035138;28;20083;-61
2023/12/21 02:13:31;;;;;;;29.58;21.92;;;;;;;;;;5031657;28;20048;-60
2023/12/21 02:15:57;;;;;;;26.50;20.88;;;;;;;;;;5049287;28;20013;-61
2023/12/21 02:18:22;;;;;;;25.63;20.50;;;;;;;;;;5041015;28;20491;-62
2023/12/21 02:20:47;;;;;;;25.27;20.10;;;;;;;;;;5016086;28;20033;-61
2023/12/21 02:23:13;;;;;;;25.50;20.40;;;;;;;;;;5016935;28;20144;-61
2023/12/21 02:25:38;;;;;;;26.42;20.35;;;;;;;;;;5040138;28;20561;-61
2023/12/21 02:28:03;;;;;;;27.05;20.50;;;;;;;;;;5021808;28;20120;-61
2023/12/21 02:30:29;;;;;;;25.55;20.30;;;;;;;;;;5027800;28;20024;-61
2023/12/21 02:32:54;;;;;;;26.55;20.25;;;;;;;;;;5003499;28;20052;-61
2023/12/21 02:35:19;;;;;;;26.45;21.25;;;;;;;;;;5057772;28;20039;-62
2023/12/21 02:37:45;;;;;;;24.65;20.20;;;;;;;;;;5036840;28;20016;-61
2023/12/21 02:40:10;;;;;;;26.05;20.70;;;;;;;;;;5046763;28;20048;-61
2023/12/21 02:42:36;;;;;;;24.42;19.10;;;;;;;;;;5029241;28;20121;-61
2023/12/21 02:45:01;;;;;;;25.33;19.67;;;;;;;;;;5029990;28;20063;-61
2023/12/21 02:47:26;;;;;;;24.55;19.13;;;;;;;;;;5040956;28;20061;-61
2023/12/21 02:49:51;;;;;;;24.45;19.05;;;;;;;;;;5049601;28;20021;-61
2023/12/21 02:52:17;;;;;;;25.42;19.25;;;;;;;;;;5044759;28;20024;-61
2023/12/21 02:54:42;;;;;;;22.45;18.15;;;;;;;;;;5034038;28;20016;-61
2023/12/21 02:57:07;;;;;;;25.80;19.63;;;;;;;;;;5035767;28;20168;-61
2023/12/21 02:59:33;;;;;;;23.58;18.75;;;;;;;;;;5030661;28;20041;-61
2023/12/21 03:01:58;;;;;;;23.27;18.95;;;;;;;;;;5029082;28;20035;-62
2023/12/21 03:04:23;;;;;;;24.27;18.52;;;;;;;;;;5033610;28;20032;-59
2023/12/21 03:06:49;;;;;;;25.58;19.27;;;;;;;;;;5036841;28;20021;-60
2023/12/21 03:09:14;;;;;;;23.00;18.58;;;;;;;;;;5022234;28;20049;-60
2023/12/21 03:11:39;;;;;;;22.77;18.70;;;;;;;;;;5060675;28;20062;-60
2023/12/21 03:14:04;;;;;;;23.67;18.20;;;;;;;;;;5039441;28;20509;-60
2023/12/21 03:16:30;;;;;;;22.92;18.10;;;;;;;;;;5056276;28;20442;-60
2023/12/21 03:18:55;;;;;;;23.75;18.15;;;;;;;;;;5033580;28;20434;-60
2023/12/21 03:21:20;;;;;;;22.45;17.88;;;;;;;;;;5058960;28;20116;-60
2023/12/21 03:23:46;;;;;;;23.10;18.70;;;;;;;;;;5047501;28;20040;-61
2023/12/21 03:26:11;;;;;;;22.77;18.80;;;;;;;;;;5039871;28;20020;-60
2023/12/21 03:28:37;;;;;;;23.63;18.75;;;;;;;;;;5039978;28;20024;-61
2023/12/21 03:31:06;;;;;;;22.17;17.85;;;;;;;;;;5061499;28;20540;-60
2023/12/21 03:33:31;;;;;;;22.45;17.38;;;;;;;;;;5027241;28;20032;-61
2023/12/21 03:35:56;;;;;;;21.02;16.75;;;;;;;;;;5038954;28;20017;-61
2023/12/21 03:38:21;;;;;;;21.00;17.02;;;;;;;;;;5049407;28;20522;-61
2023/12/21 03:40:47;;;;;;;21.65;17.08;;;;;;;;;;5027831;28;20072;-60
2023/12/21 03:43:12;;;;;;;21.90;16.77;;;;;;;;;;5038796;28;20079;-60
2023/12/21 03:45:40;;;;;;;22.42;17.25;;;;;;;;;;5031121;28;20031;-61
2023/12/21 03:48:11;;;;;;;21.58;16.92;;;;;;;;;;5029100;28;20033;-61
2023/12/21 03:50:36;;;;;;;21.90;17.15;;;;;;;;;;5037681;28;20354;-61
2023/12/21 03:53:02;;;;;;;21.90;17.10;;;;;;;;;;5028262;28;20116;-61
2023/12/21 03:55:27;;;;;;;20.20;15.88;;;;;;;;;;5045936;28;20498;-61
2023/12/21 03:57:52;;;;;;;20.00;16.50;;;;;;;;;;5041341;28;20435;-61
2023/12/21 04:00:18;;;;;;;20.35;16.38;;;;;;;;;;5035256;28;20042;-60
2023/12/21 04:02:47;;;;;;;19.60;15.73;;;;;;;;;;5008096;28;20044;-60
2023/12/21 04:05:12;;;;;;;18.85;15.13;;;;;;;;;;5041109;28;20029;-61
2023/12/21 04:07:38;;;;;;;18.83;14.65;;;;;;;;;;5028683;28;20037;-62
2023/12/21 04:10:03;;;;;;;21.23;16.23;;;;;;;;;;5033514;28;20059;-61
2023/12/21 04:12:28;;;;;;;19.02;15.02;;;;;;;;;;5019118;28;20044;-61
2023/12/21 04:14:54;;;;;;;18.83;14.93;;;;;;;;;;5041395;28;20036;-61
2023/12/21 04:17:19;;;;;;;18.15;14.95;;;;;;;;;;5044979;28;20132;-60
2023/12/21 04:19:44;;;;;;;17.92;14.48;;;;;;;;;;5041814;28;20038;-60
2023/12/21 04:22:10;;;;;;;18.02;14.25;;;;;;;;;;5051414;28;20044;-61
2023/12/21 04:24:35;;;;;;;17.80;15.27;;;;;;;;;;5028597;28;20831;-61
2023/12/21 04:27:00;;;;;;;18.80;14.43;;;;;;;;;;5044684;28;20061;-60
2023/12/21 04:29:25;;;;;;;18.63;14.70;;;;;;;;;;5044048;28;20131;-60
2023/12/21 04:31:51;;;;;;;17.92;13.90;;;;;;;;;;5021411;28;20125;-61
2023/12/21 04:34:16;;;;;;;17.60;14.57;;;;;;;;;;5045349;28;20033;-61
2023/12/21 04:36:41;;;;;;;16.50;13.98;;;;;;;;;;5042810;28;20130;-61
2023/12/21 04:39:07;;;;;;;17.90;14.38;;;;;;;;;;5037711;28;20812;-61
2023/12/21 04:41:32;;;;;;;16.23;13.75;;;;;;;;;;5030114;28;20098;-61
2023/12/21 04:43:57;;;;;;;17.50;14.15;;;;;;;;;;5024789;28;20572;-61
2023/12/21 04:46:23;;;;;;;16.92;13.43;;;;;;;;;;5037679;28;20417;-61
2023/12/21 04:48:48;;;;;;;16.98;13.60;;;;;;;;;;5033662;28;20036;-61
2023/12/21 04:51:15;;;;;;;18.52;13.95;;;;;;;;;;5030912;28;20468;-62
2023/12/21 04:53:40;;;;;;;16.65;13.52;;;;;;;;;;5027681;28;20414;-61
2023/12/21 04:56:05;;;;;;;15.75;13.43;;;;;;;;;;5044637;28;20037;-61
2023/12/21 04:58:31;;;;;;;16.05;12.57;;;;;;;;;;5021254;28;20044;-61
2023/12/21 05:00:56;;;;;;;16.65;13.30;;;;;;;;;;5016567;28;20045;-62
2023/12/21 05:03:21;;;;;;;16.40;13.55;;;;;;;;;;5041548;28;20049;-61
2023/12/21 05:05:47;;;;;;;14.35;11.85;;;;;;;;;;5034419;28;20029;-61
2023/12/21 05:08:12;;;;;;;14.57;11.88;;;;;;;;;;5041010;28;20506;-61
2023/12/21 05:10:38;;;;;;;15.98;12.40;;;;;;;;;;5032977;28;20025;-61
2023/12/21 05:13:03;;;;;;;16.00;12.55;;;;;;;;;;5037607;28;20056;-63
2023/12/21 05:15:29;;;;;;;15.52;12.40;;;;;;;;;;5016051;28;20445;-61
2023/12/21 05:17:54;;;;;;;13.68;11.60;;;;;;;;;;5012038;28;20044;-61
2023/12/21 05:20:20;;;;;;;15.10;12.05;;;;;;;;;;5027828;28;20065;-61
2023/12/21 05:22:45;;;;;;;14.55;12.43;;;;;;;;;;5035526;28;20048;-61
2023/12/21 05:25:10;;;;;;;13.82;11.35;;;;;;;;;;5038001;28;20461;-61
2023/12/21 05:27:36;;;;;;;14.88;11.88;;;;;;;;;;5036606;28;20044;-62
2023/12/21 05:30:01;;;;;;;13.93;12.02;;;;;;;;;;5021484;28;20944;-61
2023/12/21 05:32:26;;;;;;;12.75;11.00;;;;;;;;;;5035825;28;20048;-62
2023/12/21 05:34:52;;;;;;;14.50;11.05;;;;;;;;;;5038791;28;20034;-62
2023/12/21 05:37:17;;;;;;;14.07;11.57;;;;;;;;;;5038118;28;20534;-62
2023/12/21 05:39:47;;;;;;;13.63;11.43;;;;;;;;;;5031638;28;20470;-61
2023/12/21 05:42:13;;;;;;;13.32;10.73;;;;;;;;;;5006636;28;20555;-61
2023/12/21 05:44:38;;;;;;;13.43;11.15;;;;;;;;;;5014630;28;20171;-61
2023/12/21 05:47:04;;;;;;;14.05;10.38;;;;;;;;;;5026102;28;20041;-61
2023/12/21 05:49:29;;;;;;;13.27;11.00;;;;;;;;;;5033348;28;20436;-61
2023/12/21 05:51:54;;;;;;;13.07;10.70;;;;;;;;;;5038213;28;20073;-61
2023/12/21 05:54:19;;;;;;;12.23;10.15;;;;;;;;;;5027119;28;20089;-61
2023/12/21 05:56:45;;;;;;;12.85;10.23;;;;;;;;;;5018907;28;20348;-61
2023/12/21 05:59:11;;;;;;;12.88;10.75;;;;;;;;;;5039083;28;21592;-61
2023/12/21 06:01:36;;;;;;;12.98;10.13;;;;;;;;;;5023998;28;20028;-61
2023/12/21 06:04:02;;;;;;;13.18;10.65;;;;;;;;;;5032062;28;20036;-61
2023/12/21 06:06:27;;;;;;;12.38;10.18;;;;;;;;;;5034284;28;20104;-60
2023/12/21 06:08:52;;;;;;;11.40;8.85;;;;;;;;;;5026816;28;20483;-61
2023/12/21 06:11:17;;;;;;;11.57;9.93;;;;;;;;;;5021551;28;20025;-60
2023/12/21 06:13:43;;;;;;;11.18;9.13;;;;;;;;;;5031326;28;20395;-60
2023/12/21 06:16:11;;;;;;;11.38;9.27;;;;;;;;;;5025751;28;20013;-61
2023/12/21 06:18:37;;;;;;;11.75;9.18;;;;;;;;;;5019166;28;20025;-62
2023/12/21 06:21:03;;;;;;;11.05;8.95;;;;;;;;;;5019746;28;20359;-63
2023/12/21 06:23:28;;;;;;;10.85;8.98;;;;;;;;;;5043037;28;20100;-62
2023/12/21 06:25:53;;;;;;;12.10;9.25;;;;;;;;;;5020345;28;20028;-61
2023/12/21 06:28:18;;;;;;;11.25;9.05;;;;;;;;;;5029332;28;20112;-61
2023/12/21 06:30:44;;;;;;;11.55;9.00;;;;;;;;;;5038035;28;20059;-60
2023/12/21 06:33:09;;;;;;;10.70;8.77;;;;;;;;;;5036173;28;20033;-62
2023/12/21 06:35:36;;;;;;;11.15;9.07;;;;;;;;;;5046548;28;20044;-61
2023/12/21 06:38:01;;;;;;;10.55;8.75;;;;;;;;;;5022535;28;20035;-61
2023/12/21 06:40:26;;;;;;;9.20;7.88;;;;;;;;;;5044714;28;20037;-61
2023/12/21 06:42:52;;;;;;;9.60;8.60;;;;;;;;;;5044682;28;20091;-62
2023/12/21 06:45:17;;;;;;;9.65;8.23;;;;;;;;;;5043888;28;20446;-60
2023/12/21 06:47:42;;;;;;;9.82;8.40;;;;;;;;;;5047602;28;20093;-59
2023/12/21 06:50:08;;;;;;;9.65;8.05;;;;;;;;;;5050217;28;20021;-59
2023/12/21 06:52:33;;;;;;;9.32;7.45;;;;;;;;;;5043970;28;20027;-60
2023/12/21 06:54:59;;;;;;;9.18;8.00;;;;;;;;;;5041410;28;20466;-59
2023/12/21 06:57:24;;;;;;;8.25;7.35;;;;;;;;;;5044475;28;20090;-60
2023/12/21 06:59:49;;;;;;;11.45;8.27;;;;;;;;;;5040700;28;20045;-60
2023/12/21 07:02:15;;;;;;;9.35;7.55;;;;;;;;;;5034317;28;20017;-60
2023/12/21 07:04:40;;;;;;;10.00;7.78;;;;;;;;;;5029749;28;20147;-60
2023/12/21 07:07:06;;;;;;;8.98;7.38;;;;;;;;;;5044453;28;20507;-60
2023/12/21 07:09:31;;;;;;;9.60;7.57;;;;;;;;;;5045068;28;20028;-61
2023/12/21 07:11:57;;;;;;;8.27;7.07;;;;;;;;;;5027951;28;20028;-59
2023/12/21 07:14:22;;;;;;;8.90;6.93;;;;;;;;;;5040227;28;20059;-60
2023/12/21 07:16:47;;;;;;;8.73;6.97;;;;;;;;;;5037774;28;20086;-61
2023/12/21 07:19:13;;;;;;;8.88;6.47;;;;;;;;;;5043426;28;20052;-61
2023/12/21 07:21:38;;;;;;;8.95;6.93;;;;;;;;;;5041466;28;20030;-62
2023/12/21 07:24:03;;;;;;;8.77;7.00;;;;;;;;;;5018881;28;20084;-61
2023/12/21 07:26:29;;;;;;;8.05;6.82;;;;;;;;;;5035875;28;20087;-60
2023/12/21 07:28:54;;;;;;;7.45;6.22;;;;;;;;;;5018919;28;20514;-60
2023/12/21 07:31:19;;;;;;;7.88;6.47;;;;;;;;;;5036966;28;20052;-60
2023/12/21 07:33:45;;;;;;;6.88;5.88;;;;;;;;;;5027848;28;20045;-61
2023/12/21 07:36:10;;;;;;;0.80;0.50;;;;;;;;;;5027223;28;20110;-57
2023/12/21 07:38:37;;;;;;;0.60;0.40;;;;;;;;;;5037521;28;20064;-57
2023/12/21 07:41:03;;;;;;;0.40;0.30;;;;;;;;;;5013594;28;20531;-56
2023/12/21 07:43:29;;;;;;;0.35;0.20;;;;;;;;;;5038165;28;20510;-57
2023/12/21 07:45:54;;;;;;;0.90;0.50;;;;;;;;;;5036887;28;20037;-55
2023/12/21 07:48:19;;;;;;;0.40;0.30;;;;;;;;;;5038178;28;20114;-55
2023/12/21 07:50:45;;;;;;;0.70;0.50;;;;;;;;;;5018421;28;20116;-55
2023/12/21 07:53:10;;;;;;;0.40;0.30;;;;;;;;;;5040473;28;20037;-55
2023/12/21 07:55:36;;;;;;;0.82;0.43;;;;;;;;;;5038469;28;20073;-55
2023/12/21 07:58:01;;;;;;;2.40;0.38;;;;;;;;;;5040228;28;20132;-55
2023/12/21 08:00:26;;;;;;;0.60;0.43;;;;;;;;;;5039039;28;20096;-56
2023/12/21 08:02:52;;;;;;;0.57;0.22;;;;;;;;;;5036944;28;20033;-57
2023/12/21 08:05:17;;;;;;;0.55;0.30;;;;;;;;;;5037290;28;20059;-57
2023/12/21 08:07:43;;;;;;;0.65;0.28;;;;;;;;;;5019422;28;20028;-57
2023/12/21 08:10:08;;;;;;;0.65;0.35;;;;;;;;;;5035680;28;20091;-57
2023/12/21 08:12:35;;;;;;;0.73;0.40;;;;;;;;;;5035227;28;20044;-57
2023/12/21 08:15:00;;;;;;;0.50;0.35;;;;;;;;;;5037057;28;20041;-57
2023/12/21 08:17:25;;;;;;;0.63;0.32;;;;;;;;;;5031969;28;20043;-57
2023/12/21 08:19:51;;;;;;;0.45;0.40;;;;;;;;;;5038312;28;20060;-56
2023/12/21 08:22:16;;;;;;;0.63;0.43;;;;;;;;;;5038597;28;20059;-56
2023/12/21 08:24:41;;;;;;;0.57;0.40;;;;;;;;;;5034636;28;20274;-57
2023/12/21 08:27:08;;;;;;;0.60;0.40;;;;;;;;;;5019288;28;20029;-56
2023/12/21 08:29:33;;;;;;;1.65;0.20;;;;;;;;;;5033565;28;20040;-58
2023/12/21 08:31:59;;;;;;;0.80;0.28;;;;;;;;;;5030716;28;20187;-58
2023/12/21 08:34:24;;;;;;;0.80;0.40;;;;;;;;;;5038408;28;20442;-58
2023/12/21 08:36:50;;;;;;;0.63;0.40;;;;;;;;;;5028624;28;20095;-55
2023/12/21 08:39:15;;;;;;;0.55;0.30;;;;;;;;;;5038560;28;20494;-57
2023/12/21 08:41:41;;;;;;;0.45;0.25;;;;;;;;;;5037871;28;20037;-59
2023/12/21 08:44:06;;;;;;;0.60;0.40;;;;;;;;;;5018391;28;20037;-57
2023/12/21 08:46:31;;;;;;;0.40;0.22;;;;;;;;;;5037374;28;20052;-58
2023/12/21 08:48:57;;;;;;;0.45;0.30;;;;;;;;;;5041370;28;20530;-57
2023/12/21 08:51:22;;;;;;;0.70;0.40;;;;;;;;;;5037549;28;20100;-58
2023/12/21 08:53:47;;;;;;;0.40;0.20;;;;;;;;;;5024717;28;20039;-59
2023/12/21 08:56:15;;;;;;;0.52;0.20;;;;;;;;;;5041891;28;20034;-59
2023/12/21 08:58:40;;;;;;;0.20;0.20;;;;;;;;;;5041426;28;20053;-59
2023/12/21 09:01:05;;;;;;;0.20;0.20;;;;;;;;;;5041154;28;20048;-57
2023/12/21 09:03:31;;;;;;;0.40;0.20;;;;;;;;;;5053840;28;20140;-56
2023/12/21 09:05:56;;;;;;;0.50;0.25;;;;;;;;;;5045367;28;20116;-57
2023/12/21 09:08:22;;;;;;;0.25;0.20;;;;;;;;;;5021326;28;20056;-57
2023/12/21 09:10:47;;;;;;;0.38;0.20;;;;;;;;;;5042843;28;20135;-57
2023/12/21 09:13:12;;;;;;;0.20;0.20;;;;;;;;;;5041111;28;20695;-58
2023/12/21 09:15:38;;;;;;;0.60;0.20;;;;;;;;;;5038106;28;20455;-56
2023/12/21 09:18:05;;;;;;;0.73;0.55;;;;;;;;;;5037992;28;20116;-57
2023/12/21 09:20:30;;;;;;;0.40;0.20;;;;;;;;;;5021856;28;20081;-57
2023/12/21 09:22:55;;;;;;;0.50;0.20;;;;;;;;;;5047736;28;20067;-59
2023/12/21 09:25:20;;;;;;;0.60;0.30;;;;;;;;;;5043649;28;20487;-58
2023/12/21 09:27:46;;;;;;;0.30;0.20;;;;;;;;;;5021168;28;20029;-57
2023/12/21 09:30:11;;;;;;;0.30;0.20;;;;;;;;;;5011960;28;20056;-57
2023/12/21 09:32:38;;;;;;;0.30;0.20;;;;;;;;;;5049209;28;20033;-57
2023/12/21 09:35:04;;;;;;;0.20;0.20;;;;;;;;;;5046258;28;20059;-56
2023/12/21 09:37:29;;;;;;;0.47;0.25;;;;;;;;;;5047278;28;20037;-57
2023/12/21 09:39:57;;;;;;;0.60;0.43;;;;;;;;;;5038074;28;20143;-57
2023/12/21 09:42:22;;;;;;;0.40;0.30;;;;;;;;;;5041715;28;20116;-58
2023/12/21 09:44:48;;;;;;;0.35;0.25;;;;;;;;;;5039753;28;20160;-56
2023/12/21 09:47:13;;;;;;;0.47;0.30;;;;;;;;;;5020693;28;20026;-56
2023/12/21 09:49:39;;;;;;;0.77;0.40;;;;;;;;;;5041305;28;20032;-56
2023/12/21 09:52:04;;;;;;;1.05;0.20;;;;;;;;;;5043146;28;20127;-56
2023/12/21 09:54:30;;;;;;;0.30;0.17;;;;;;;;;;5057297;28;20431;-57
2023/12/21 09:56:55;;;;;;;0.22;0.10;;;;;;;;;;5037159;28;20408;-57
2023/12/21 09:59:20;;;;;;;0.30;0.20;;;;;;;;;;5027728;28;20526;-56
2023/12/21 10:01:46;;;;;;;0.40;0.20;;;;;;;;;;5026151;28;20497;-56
2023/12/21 10:04:11;;;;;;;0.25;0.17;;;;;;;;;;5038480;28;20124;-56
2023/12/21 10:06:37;;;;;;;0.50;0.40;;;;;;;;;;5050263;28;20115;-57
2023/12/21 10:09:04;;;;;;;0.50;0.30;;;;;;;;;;5047112;28;20431;-57
2023/12/21 10:11:30;;;;;;;0.30;0.22;;;;;;;;;;5049648;28;20033;-57
2023/12/21 10:13:57;;;;;;;0.30;0.17;;;;;;;;;;5039551;28;20090;-56
2023/12/21 10:16:24;;;;;;;0.40;0.20;;;;;;;;;;5020570;28;20068;-58
2023/12/21 10:18:50;;;;;;;0.32;0.20;;;;;;;;;;5038622;28;20057;-58
2023/12/21 10:21:15;;;;;;;0.30;0.20;;;;;;;;;;5041654;28;20241;-58
2023/12/21 10:23:41;;;;;;;0.30;0.28;;;;;;;;;;5017633;28;20538;-58
2023/12/21 10:26:06;;;;;;;1.20;0.30;;;;;;;;;;5021174;28;20049;-58
2023/12/21 10:28:32;;;;;;;0.55;0.20;;;;;;;;;;5039761;28;20029;-58
2023/12/21 10:30:58;;;;;;;0.55;0.40;;;;;;;;;;5039307;28;20041;-58
2023/12/21 10:33:26;;;;;;;0.93;0.60;;;;;;;;;;5031128;28;20084;-57
2023/12/21 10:35:52;;;;;;;0.70;0.40;;;;;;;;;;5036432;28;20747;-56
2023/12/21 10:38:18;;;;;;;1.05;0.30;;;;;;;;;;5038795;28;20025;-57
2023/12/21 10:40:46;;;;;;;1.20;0.40;;;;;;;;;;5036573;28;20053;-57
2023/12/21 10:43:14;;;;;;;0.52;0.28;;;;;;;;;;5035728;28;20131;-56
2023/12/21 10:45:42;;;;;;;0.40;0.30;;;;;;;;;;5036167;28;20041;-57
2023/12/21 10:48:08;;;;;;;2.05;0.38;;;;;;;;;;5036344;28;20132;-58
2023/12/21 10:50:33;;;;;;;0.70;0.20;;;;;;;;;;5039358;28;20116;-58
2023/12/21 10:52:59;;;;;;;11.00;4.60;;;;;;;;;;5041709;28;20511;-61
2023/12/21 10:55:24;;;;;;;10.52;4.80;;;;;;;;;;5037809;28;20055;-58
2023/12/21 10:57:49;;;;;;;9.57;4.70;;;;;;;;;;5012551;28;20239;-58
2023/12/21 11:00:17;;;;;;;9.63;4.38;;;;;;;;;;5037925;28;20081;-58
2023/12/21 11:02:44;;;;;;;7.18;4.15;;;;;;;;;;5016497;28;20056;-58
2023/12/21 11:05:10;;;;;;;7.45;4.10;;;;;;;;;;5035805;28;20048;-59
2023/12/21 11:07:36;;;;;;;7.20;4.38;;;;;;;;;;5040974;28;20063;-58
2023/12/21 11:10:02;;;;;;;8.55;4.25;;;;;;;;;;5021912;28;20067;-59
2023/12/21 11:12:27;;;;;;;8.45;4.20;;;;;;;;;;5034994;28;20072;-59
2023/12/21 11:14:53;;;;;;;8.20;4.00;;;;;;;;;;5034850;28;20029;-59
2023/12/21 11:17:18;;;;;;;7.85;3.80;;;;;;;;;;5035659;28;20797;-58
2023/12/21 11:19:44;;;;;;;7.97;4.10;;;;;;;;;;5036141;28;20827;-58
2023/12/21 11:22:10;;;;;;;6.75;3.60;;;;;;;;;;5014905;28;20545;-58
2023/12/21 11:24:35;;;;;;;7.55;4.05;;;;;;;;;;5023548;28;20360;-58
2023/12/21 11:27:01;;;;;;;7.60;3.83;;;;;;;;;;5036677;28;20876;-59
2023/12/21 11:29:27;;;;;;;5.32;3.28;;;;;;;;;;5033326;28;20486;-58
2023/12/21 11:31:53;;;;;;;6.15;3.72;;;;;;;;;;5031234;28;20100;-59
2023/12/21 11:34:23;;;;;;;7.13;3.47;;;;;;;;;;5045089;28;20521;-59
2023/12/21 11:36:58;;;;;;;7.05;3.65;;;;;;;;;;5025083;28;20144;-56
2023/12/21 11:39:24;;;;;;;5.32;3.70;;;;;;;;;;5046783;28;20044;-59
2023/12/21 11:41:50;;;;;;;4.93;3.33;;;;;;;;;;5044761;28;21119;-55
2023/12/21 11:44:16;;;;;;;6.63;3.65;;;;;;;;;;5026702;28;20029;-57
2023/12/21 11:46:41;;;;;;;5.57;3.25;;;;;;;;;;5037438;28;20041;-58
2023/12/21 11:49:09;;;;;;;5.95;3.40;;;;;;;;;;5040137;28;20040;-58
2023/12/21 11:51:44;;;;;;;5.78;3.70;;;;;;;;;;5039504;28;20103;-57
2023/12/21 11:54:10;;;;;;;5.80;3.30;;;;;;;;;;5043060;28;20125;-57
2023/12/21 11:56:36;;;;;;;6.97;3.58;;;;;;;;;;5037322;28;20375;-58
2023/12/21 11:59:02;;;;;;;5.70;3.38;;;;;;;;;;5042395;28;20055;-57
2023/12/21 12:01:27;;;;;;;7.03;3.30;;;;;;;;;;5038180;28;20144;-58
2023/12/21 12:03:53;;;;;;;5.35;3.08;;;;;;;;;;5041180;28;20043;-58
2023/12/21 12:06:18;;;;;;;5.25;3.00;;;;;;;;;;5038965;28;20037;-57
2023/12/21 12:08:43;;;;;;;6.13;3.30;;;;;;;;;;5041924;28;20040;-57
2023/12/21 12:11:09;;;;;;;4.97;2.80;;;;;;;;;;5038885;28;20095;-57
2023/12/21 12:13:36;;;;;;;5.38;3.10;;;;;;;;;;5044574;28;20415;-58
2023/12/21 12:16:02;;;;;;;4.90;3.22;;;;;;;;;;5037395;28;20037;-57
2023/12/21 12:18:27;;;;;;;4.60;3.15;;;;;;;;;;5040533;28;20047;-57
2023/12/21 12:20:52;;;;;;;5.88;3.38;;;;;;;;;;5040287;28;20045;-57
2023/12/21 12:23:18;;;;;;;4.63;2.92;;;;;;;;;;5014359;28;20112;-58
2023/12/21 12:25:43;;;;;;;4.90;3.00;;;;;;;;;;5035726;28;20083;-58
2023/12/21 12:28:09;;;;;;;4.45;3.10;;;;;;;;;;5014940;28;20033;-58
2023/12/21 12:30:37;;;;;;;5.68;3.05;;;;;;;;;;5038058;28;20033;-57
2023/12/21 12:33:03;;;;;;;4.05;2.50;;;;;;;;;;5037858;28;20033;-57
2023/12/21 12:35:32;;;;;;;5.60;3.30;;;;;;;;;;5036589;28;20033;-57
2023/12/21 12:37:58;;;;;;;3.95;2.65;;;;;;;;;;5038898;28;20512;-57
2023/12/21 12:40:23;;;;;;;4.60;2.92;;;;;;;;;;5038495;28;20123;-57
2023/12/21 12:42:51;;;;;;;5.80;3.20;;;;;;;;;;5038630;28;20013;-57
2023/12/21 12:45:18;;;;;;;4.45;2.70;;;;;;;;;;5044803;28;20052;-57
2023/12/21 12:47:43;;;;;;;4.18;2.58;;;;;;;;;;5035642;28;20025;-57
2023/12/21 12:50:11;;;;;;;4.55;2.50;;;;;;;;;;5040770;28;20473;-58
2023/12/21 12:52:40;;;;;;;4.30;2.97;;;;;;;;;;5036998;28;20071;-58
2023/12/21 12:55:07;;;;;;;3.80;2.60;;;;;;;;;;5037396;28;20031;-58
2023/12/21 12:57:32;;;;;;;4.75;2.47;;;;;;;;;;5029003;28;20021;-58
2023/12/21 13:00:00;;;;;;;5.75;2.60;;;;;;;;;;5015680;28;20037;-57
2023/12/21 13:02:27;;;;;;;3.83;2.35;;;;;;;;;;5023546;28;20093;-58
2023/12/21 13:04:52;;;;;;;3.85;2.53;;;;;;;;;;5015779;28;20450;-58
2023/12/21 13:07:20;;;;;;;4.03;2.53;;;;;;;;;;5040466;28;20102;-57
2023/12/21 13:09:46;;;;;;;4.05;2.35;;;;;;;;;;4999755;28;20699;-57
2023/12/21 13:12:11;;;;;;;4.38;2.50;;;;;;;;;;5040788;28;20036;-58
2023/12/21 13:14:36;;;;;;;4.13;2.60;;;;;;;;;;5034701;28;20052;-57
2023/12/21 13:17:03;;;;;;;3.47;2.53;;;;;;;;;;5012982;28;20041;-57
2023/12/21 13:19:28;;;;;;;3.15;2.22;;;;;;;;;;5037407;28;20486;-57
2023/12/21 13:21:55;;;;;;;3.63;2.35;;;;;;;;;;5017766;28;20060;-57
2023/12/21 13:24:20;;;;;;;4.65;2.60;;;;;;;;;;5036552;28;20041;-58
2023/12/21 13:26:46;;;;;;;3.55;2.00;;;;;;;;;;5014556;28;20488;-58
2023/12/21 13:29:11;;;;;;;4.00;2.22;;;;;;;;;;5043636;28;20033;-58
2023/12/21 13:31:37;;;;;;;3.55;2.30;;;;;;;;;;5043669;28;20037;-60
2023/12/21 13:34:02;;;;;;;4.43;2.78;;;;;;;;;;5032947;28;20040;-57
2023/12/21 13:36:28;;;;;;;3.40;2.33;;;;;;;;;;5034380;28;20388;-56
2023/12/21 13:38:56;;;;;;;3.88;2.35;;;;;;;;;;5035660;28;20503;-56
2023/12/21 13:41:21;;;;;;;4.38;2.45;;;;;;;;;;5039045;28;20048;-57
2023/12/21 13:43:47;;;;;;;3.67;2.22;;;;;;;;;;5026754;28;20036;-57
2023/12/21 13:46:12;;;;;;;3.50;2.25;;;;;;;;;;5039218;28;20053;-58
2023/12/21 13:48:37;;;;;;;3.53;2.08;;;;;;;;;;5043858;28;20033;-58
2023/12/21 13:51:03;;;;;;;3.95;1.77;;;;;;;;;;5039720;28;20060;-58
2023/12/21 13:53:29;;;;;;;3.63;1.98;;;;;;;;;;5040709;28;20033;-58
2023/12/21 13:55:55;;;;;;;3.55;2.25;;;;;;;;;;5024305;28;20047;-58
2023/12/21 13:58:20;;;;;;;2.92;1.95;;;;;;;;;;5029400;28;20561;-58
2023/12/21 14:00:46;;;;;;;3.65;1.80;;;;;;;;;;5032378;28;20073;-57
2023/12/21 14:03:16;;;;;;;3.22;1.88;;;;;;;;;;5045382;28;20045;-57
2023/12/21 14:05:41;;;;;;;3.05;1.95;;;;;;;;;;5040512;28;20136;-57
2023/12/21 14:08:07;;;;;;;4.30;2.00;;;;;;;;;;5026432;28;20117;-57
2023/12/21 14:10:34;;;;;;;2.97;2.00;;;;;;;;;;5033016;28;20033;-57
2023/12/21 14:13:00;;;;;;;3.53;1.67;;;;;;;;;;5020834;28;20071;-70
2023/12/21 14:15:25;;;;;;;3.03;2.10;;;;;;;;;;5025545;28;20128;-59
2023/12/21 14:17:51;;;;;;;3.40;2.17;;;;;;;;;;5026657;28;20091;-61
2023/12/21 14:20:18;;;;;;;3.30;1.80;;;;;;;;;;5025253;28;20110;-60